sensor_id;sensor_type;location;lat;lon;timestamp;pressure;altitude;pressure_sealevel;temperature;humidity
10064;BME280;5071;52.360;13.134;2023-02-15T00:03:11;102727.34;;;-1.85;100.00
10064;BME280;5071;52.360;13.134;2023-02-15T00:08:15;102726.19;;;-1.77;100.00
10064;BME280;5071;52.360;13.134;2023-02-15T00:13:16;102716.72;;;-1.88;100.00
10064;BME280;5071;52.360;13.134;2023-02-15T00:18:21;102727.84;;;-1.90;100.00
10064;BME280;5071;52.360;13.134;2023-02-15T00:23:33;102720.31;;;-2.11;100.00
10064;BME280;5071;52.360;13.134;2023-02-15T00:28:38;102723.25;;;-2.18;100.00
10064;BME280;5071;52.360;13.134;2023-02-15T00:33:40;102714.06;;;-2.01;100.00
10064;BME280;5071;52.360;13.134;2023-02-15T00:38:43;102707.41;;;-2.09;100.00
10064;BME280;5071;52.360;13.134;2023-02-15T00:43:46;102710.06;;;-2.21;100.00
10064;BME280;5071;52.360;13.134;2023-02-15T00:48:48;102708.75;;;-2.40;100.00
10064;BME280;5071;52.360;13.134;2023-02-15T00:53:51;102708.94;;;-2.37;100.00
10064;BME280;5071;52.360;13.134;2023-02-15T00:59:08;102691.00;;;-2.45;100.00
10064;BME280;5071;52.360;13.134;2023-02-15T01:04:10;102701.72;;;-2.41;100.00
10064;BME280;5071;52.360;13.134;2023-02-15T01:09:21;102699.69;;;-2.45;100.00
10064;BME280;5071;52.360;13.134;2023-02-15T01:14:23;102697.66;;;-2.49;100.00
10064;BME280;5071;52.360;13.134;2023-02-15T01:19:28;102692.03;;;-2.55;100.00
10064;BME280;5071;52.360;13.134;2023-02-15T01:24:32;102676.22;;;-2.70;100.00
10064;BME280;5071;52.360;13.134;2023-02-15T01:29:34;102683.78;;;-2.61;100.00
10064;BME280;5071;52.360;13.134;2023-02-15T01:34:36;102663.91;;;-2.72;100.00
10064;BME280;5071;52.360;13.134;2023-02-15T01:39:40;102662.22;;;-2.84;100.00
10064;BME280;5071;52.360;13.134;2023-02-15T01:44:56;102667.66;;;-2.81;100.00
10064;BME280;5071;52.360;13.134;2023-02-15T01:50:12;102650.38;;;-2.92;100.00
10064;BME280;5071;52.360;13.134;2023-02-15T01:55:18;102645.06;;;-2.94;100.00
10064;BME280;5071;52.360;13.134;2023-02-15T02:00:28;102639.84;;;-2.94;100.00
10064;BME280;5071;52.360;13.134;2023-02-15T02:05:45;102622.69;;;-3.03;100.00
10064;BME280;5071;52.360;13.134;2023-02-15T02:11:13;102615.47;;;-3.07;100.00
10064;BME280;5071;52.360;13.134;2023-02-15T02:16:20;102612.88;;;-3.07;100.00
10064;BME280;5071;52.360;13.134;2023-02-15T02:33:19;102604.75;;;-3.24;100.00
10064;BME280;5071;52.360;13.134;2023-02-15T02:38:27;102588.94;;;-3.27;100.00
10064;BME280;5071;52.360;13.134;2023-02-15T02:43:40;102594.69;;;-3.19;100.00
10064;BME280;5071;52.360;13.134;2023-02-15T02:48:48;102591.63;;;-3.14;100.00
10064;BME280;5071;52.360;13.134;2023-02-15T02:53:58;102578.22;;;-3.32;100.00
10064;BME280;5071;52.360;13.134;2023-02-15T02:59:03;102578.09;;;-3.21;100.00
10064;BME280;5071;52.360;13.134;2023-02-15T03:04:14;102577.44;;;-3.19;100.00
10064;BME280;5071;52.360;13.134;2023-02-15T03:09:22;102576.84;;;-3.38;100.00
10064;BME280;5071;52.360;13.134;2023-02-15T03:14:27;102566.03;;;-3.44;100.00
10064;BME280;5071;52.360;13.134;2023-02-15T03:19:35;102560.59;;;-3.47;100.00
10064;BME280;5071;52.360;13.134;2023-02-15T03:24:42;102562.88;;;-3.52;100.00
10064;BME280;5071;52.360;13.134;2023-02-15T03:29:47;102547.75;;;-3.58;100.00
10064;BME280;5071;52.360;13.134;2023-02-15T03:34:53;102547.06;;;-3.55;100.00
10064;BME280;5071;52.360;13.134;2023-02-15T03:39:59;102551.34;;;-3.56;100.00
10064;BME280;5071;52.360;13.134;2023-02-15T03:45:06;102555.09;;;-3.64;100.00
10064;BME280;5071;52.360;13.134;2023-02-15T03:50:15;102552.50;;;-3.64;100.00
10064;BME280;5071;52.360;13.134;2023-02-15T03:55:19;102542.88;;;-3.65;100.00
10064;BME280;5071;52.360;13.134;2023-02-15T04:00:24;102548.63;;;-3.69;100.00
10064;BME280;5071;52.360;13.134;2023-02-15T04:05:28;102549.09;;;-3.75;100.00
10064;BME280;5071;52.360;13.134;2023-02-15T04:10:30;102557.00;;;-3.61;100.00
10064;BME280;5071;52.360;13.134;2023-02-15T04:15:32;102549.97;;;-3.62;100.00
10064;BME280;5071;52.360;13.134;2023-02-15T04:20:35;102543.56;;;-3.67;100.00
10064;BME280;5071;52.360;13.134;2023-02-15T04:25:38;102537.34;;;-3.58;100.00
10064;BME280;5071;52.360;13.134;2023-02-15T04:30:40;102539.75;;;-3.49;100.00
10064;BME280;5071;52.360;13.134;2023-02-15T04:35:44;102534.19;;;-3.30;100.00
10064;BME280;5071;52.360;13.134;2023-02-15T04:40:49;102524.22;;;-3.00;100.00
10064;BME280;5071;52.360;13.134;2023-02-15T04:45:52;102506.53;;;-2.81;100.00
10064;BME280;5071;52.360;13.134;2023-02-15T04:50:55;102494.97;;;-2.72;100.00
10064;BME280;5071;52.360;13.134;2023-02-15T04:55:57;102487.63;;;-2.66;100.00
10064;BME280;5071;52.360;13.134;2023-02-15T05:01:00;102487.84;;;-2.50;100.00
10064;BME280;5071;52.360;13.134;2023-02-15T05:06:04;102482.75;;;-2.23;100.00
10064;BME280;5071;52.360;13.134;2023-02-15T05:11:06;102472.19;;;-2.00;100.00
10064;BME280;5071;52.360;13.134;2023-02-15T05:16:08;102465.19;;;-1.87;100.00
10064;BME280;5071;52.360;13.134;2023-02-15T05:21:11;102470.69;;;-1.83;100.00
10064;BME280;5071;52.360;13.134;2023-02-15T05:26:16;102460.50;;;-1.80;100.00
10064;BME280;5071;52.360;13.134;2023-02-15T05:31:19;102469.91;;;-1.82;100.00
10064;BME280;5071;52.360;13.134;2023-02-15T05:36:23;102467.00;;;-1.73;100.00
10064;BME280;5071;52.360;13.134;2023-02-15T05:41:25;102464.69;;;-1.68;100.00
10064;BME280;5071;52.360;13.134;2023-02-15T05:46:28;102458.78;;;-1.66;100.00
10064;BME280;5071;52.360;13.134;2023-02-15T05:51:31;102464.69;;;-1.68;100.00
10064;BME280;5071;52.360;13.134;2023-02-15T05:56:34;102462.28;;;-1.65;100.00
10064;BME280;5071;52.360;13.134;2023-02-15T06:01:36;102454.97;;;-1.71;100.00
10064;BME280;5071;52.360;13.134;2023-02-15T06:06:39;102457.19;;;-1.64;100.00
10064;BME280;5071;52.360;13.134;2023-02-15T06:11:42;102443.78;;;-1.70;100.00
10064;BME280;5071;52.360;13.134;2023-02-15T06:16:44;102460.28;;;-1.83;100.00
10064;BME280;5071;52.360;13.134;2023-02-15T06:21:47;102454.78;;;-1.87;100.00
10064;BME280;5071;52.360;13.134;2023-02-15T06:26:50;102452.78;;;-1.78;100.00
10064;BME280;5071;52.360;13.134;2023-02-15T06:31:52;102448.97;;;-1.70;100.00
10064;BME280;5071;52.360;13.134;2023-02-15T06:36:56;102458.78;;;-1.66;100.00
10064;BME280;5071;52.360;13.134;2023-02-15T06:41:58;102446.66;;;-1.65;100.00
10064;BME280;5071;52.360;13.134;2023-02-15T06:47:01;102443.97;;;-1.67;100.00
10064;BME280;5071;52.360;13.134;2023-02-15T06:52:05;102456.00;;;-1.55;100.00
10064;BME280;5071;52.360;13.134;2023-02-15T06:57:08;102442.34;;;-1.51;100.00
10064;BME280;5071;52.360;13.134;2023-02-15T07:02:13;102438.63;;;-1.42;100.00
10064;BME280;5071;52.360;13.134;2023-02-15T07:07:16;102438.53;;;-1.43;100.00
10064;BME280;5071;52.360;13.134;2023-02-15T07:12:18;102433.28;;;-1.30;100.00
10064;BME280;5071;52.360;13.134;2023-02-15T07:17:20;102441.59;;;-1.22;100.00
10064;BME280;5071;52.360;13.134;2023-02-15T07:22:39;102439.69;;;-1.25;100.00
10064;BME280;5071;52.360;13.134;2023-02-15T07:27:44;102435.38;;;-1.24;100.00
10064;BME280;5071;52.360;13.134;2023-02-15T07:32:47;102427.81;;;-1.34;100.00
10064;BME280;5071;52.360;13.134;2023-02-15T07:37:50;102422.50;;;-1.36;100.00
10064;BME280;5071;52.360;13.134;2023-02-15T07:42:52;102418.28;;;-1.34;100.00
10064;BME280;5071;52.360;13.134;2023-02-15T07:47:54;102409.34;;;-1.24;100.00
10064;BME280;5071;52.360;13.134;2023-02-15T07:52:58;102402.63;;;-1.21;100.00
10064;BME280;5071;52.360;13.134;2023-02-15T07:58:00;102408.75;;;-1.05;100.00
10064;BME280;5071;52.360;13.134;2023-02-15T08:03:03;102394.56;;;-1.10;100.00
10064;BME280;5071;52.360;13.134;2023-02-15T08:08:07;102387.91;;;-1.05;100.00
10064;BME280;5071;52.360;13.134;2023-02-15T08:13:09;102394.56;;;-1.10;100.00
10064;BME280;5071;52.360;13.134;2023-02-15T08:18:11;102388.69;;;-0.93;100.00
10064;BME280;5071;52.360;13.134;2023-02-15T08:23:15;102388.47;;;-0.96;100.00
10064;BME280;5071;52.360;13.134;2023-02-15T08:28:17;102385.63;;;-1.01;100.00
10064;BME280;5071;52.360;13.134;2023-02-15T08:33:19;102384.56;;;-0.89;100.00
10064;BME280;5071;52.360;13.134;2023-02-15T08:38:22;102371.38;;;-0.48;100.00
10064;BME280;5071;52.360;13.134;2023-02-15T08:43:25;102374.53;;;-0.24;100.00
10064;BME280;5071;52.360;13.134;2023-02-15T08:48:26;102360.16;;;-0.47;100.00
10064;BME280;5071;52.360;13.134;2023-02-15T08:53:30;102360.22;;;-0.30;100.00
10064;BME280;5071;52.360;13.134;2023-02-15T08:58:33;102362.28;;;-0.25;100.00
10064;BME280;5071;52.360;13.134;2023-02-15T09:03:35;102359.19;;;-0.03;100.00
10064;BME280;5071;52.360;13.134;2023-02-15T09:08:39;102348.56;;;-0.06;100.00
10064;BME280;5071;52.360;13.134;2023-02-15T09:13:42;102337.53;;;-0.02;100.00
10064;BME280;5071;52.360;13.134;2023-02-15T09:18:44;102344.34;;;0.28;100.00
10064;BME280;5071;52.360;13.134;2023-02-15T09:23:50;102338.50;;;0.01;100.00
10064;BME280;5071;52.360;13.134;2023-02-15T09:28:53;102334.81;;;0.28;100.00
10064;BME280;5071;52.360;13.134;2023-02-15T09:33:56;102333.72;;;1.05;100.00
10064;BME280;5071;52.360;13.134;2023-02-15T09:39:03;102321.22;;;0.83;100.00
10064;BME280;5071;52.360;13.134;2023-02-15T09:44:17;102339.66;;;1.03;100.00
10064;BME280;5071;52.360;13.134;2023-02-15T09:49:26;102333.09;;;1.62;99.10
10064;BME280;5071;52.360;13.134;2023-02-15T09:54:44;102338.03;;;1.73;97.46
10064;BME280;5071;52.360;13.134;2023-02-15T09:59:55;102346.81;;;1.40;99.17
10064;BME280;5071;52.360;13.134;2023-02-15T10:05:11;102332.47;;;1.85;98.12
10064;BME280;5071;52.360;13.134;2023-02-15T10:10:25;102315.53;;;2.32;95.97
10064;BME280;5071;52.360;13.134;2023-02-15T10:15:50;102320.09;;;1.99;95.85
10064;BME280;5071;52.360;13.134;2023-02-15T10:20:57;102312.19;;;2.17;97.09
10064;BME280;5071;52.360;13.134;2023-02-15T10:26:11;102319.56;;;3.02;95.17
10064;BME280;5071;52.360;13.134;2023-02-15T10:31:24;102304.91;;;3.92;89.42
10064;BME280;5071;52.360;13.134;2023-02-15T10:36:36;102304.50;;;4.03;88.15
10064;BME280;5071;52.360;13.134;2023-02-15T10:41:49;102297.63;;;3.84;88.27
10064;BME280;5071;52.360;13.134;2023-02-15T10:47:11;102289.22;;;4.16;87.90
10064;BME280;5071;52.360;13.134;2023-02-15T10:52:29;102281.75;;;4.26;87.78
10064;BME280;5071;52.360;13.134;2023-02-15T10:57:40;102284.13;;;4.91;86.67
10064;BME280;5071;52.360;13.134;2023-02-15T11:08:11;102269.00;;;9.05;69.42
10064;BME280;5071;52.360;13.134;2023-02-15T11:13:18;102257.16;;;14.01;53.91
10064;BME280;5071;52.360;13.134;2023-02-15T11:18:26;102249.06;;;15.77;47.51
10064;BME280;5071;52.360;13.134;2023-02-15T11:23:32;102248.09;;;16.60;47.37
10064;BME280;5071;52.360;13.134;2023-02-15T11:28:46;102241.47;;;16.89;45.86
10064;BME280;5071;52.360;13.134;2023-02-15T11:33:52;102230.34;;;18.16;42.94
10064;BME280;5071;52.360;13.134;2023-02-15T11:38:59;102207.88;;;14.84;50.11
10064;BME280;5071;52.360;13.134;2023-02-15T11:44:07;102209.53;;;11.67;59.18
10064;BME280;5071;52.360;13.134;2023-02-15T11:49:22;102213.13;;;10.03;66.04
10064;BME280;5071;52.360;13.134;2023-02-15T11:54:28;102205.34;;;9.01;71.51
10064;BME280;5071;52.360;13.134;2023-02-15T11:59:36;102201.66;;;8.92;72.18
10064;BME280;5071;52.360;13.134;2023-02-15T12:04:42;102183.50;;;9.70;71.28
10064;BME280;5071;52.360;13.134;2023-02-15T12:09:49;102183.25;;;9.55;70.85
10064;BME280;5071;52.360;13.134;2023-02-15T12:14:57;102180.06;;;9.78;71.09
10064;BME280;5071;52.360;13.134;2023-02-15T12:20:01;102171.84;;;9.58;71.25
10064;BME280;5071;52.360;13.134;2023-02-15T12:25:20;102168.13;;;10.10;69.96
10064;BME280;5071;52.360;13.134;2023-02-15T12:30:30;102152.66;;;9.77;71.27
10064;BME280;5071;52.360;13.134;2023-02-15T12:36:00;102153.16;;;10.17;70.33
10064;BME280;5071;52.360;13.134;2023-02-15T12:41:19;102149.50;;;10.88;67.33
10064;BME280;5071;52.360;13.134;2023-02-15T12:46:26;102141.69;;;11.02;64.83
10064;BME280;5071;52.360;13.134;2023-02-15T12:51:28;102136.56;;;11.27;64.26
10064;BME280;5071;52.360;13.134;2023-02-15T12:56:30;102132.81;;;11.03;64.12
10064;BME280;5071;52.360;13.134;2023-02-15T13:01:33;102127.06;;;11.72;63.87
10064;BME280;5071;52.360;13.134;2023-02-15T13:06:36;102114.47;;;11.36;61.88
10064;BME280;5071;52.360;13.134;2023-02-15T13:11:38;102115.13;;;11.07;62.24
10064;BME280;5071;52.360;13.134;2023-02-15T13:16:46;102097.13;;;12.12;61.99
10064;BME280;5071;52.360;13.134;2023-02-15T13:21:51;102092.69;;;12.14;61.17
10064;BME280;5071;52.360;13.134;2023-02-15T13:26:59;102089.00;;;11.82;60.42
10064;BME280;5071;52.360;13.134;2023-02-15T13:32:26;102083.66;;;11.84;62.83
10064;BME280;5071;52.360;13.134;2023-02-15T13:37:48;102077.44;;;11.70;61.09
10064;BME280;5071;52.360;13.134;2023-02-15T13:42:55;102064.84;;;11.41;61.24
10064;BME280;5071;52.360;13.134;2023-02-15T13:48:06;102058.63;;;11.34;62.66
10064;BME280;5071;52.360;13.134;2023-02-15T13:53:28;102072.13;;;11.82;62.07
10064;BME280;5071;52.360;13.134;2023-02-15T13:58:55;102072.31;;;12.33;59.95
10064;BME280;5071;52.360;13.134;2023-02-15T14:04:17;102066.13;;;12.51;58.67
10064;BME280;5071;52.360;13.134;2023-02-15T14:09:37;102073.25;;;12.79;58.13
10064;BME280;5071;52.360;13.134;2023-02-15T14:15:03;102074.13;;;12.66;57.45
10064;BME280;5071;52.360;13.134;2023-02-15T14:20:18;102063.44;;;12.38;57.43
10064;BME280;5071;52.360;13.134;2023-02-15T14:25:27;102058.13;;;12.35;58.31
10064;BME280;5071;52.360;13.134;2023-02-15T14:30:36;102050.13;;;12.31;58.30
10064;BME280;5071;52.360;13.134;2023-02-15T14:35:40;102048.28;;;12.00;58.79
10064;BME280;5071;52.360;13.134;2023-02-15T14:40:50;102052.53;;;11.55;59.56
10064;BME280;5071;52.360;13.134;2023-02-15T14:46:00;102048.91;;;11.38;60.62
10064;BME280;5071;52.360;13.134;2023-02-15T14:51:06;102040.94;;;11.38;60.65
10064;BME280;5071;52.360;13.134;2023-02-15T14:56:20;102033.72;;;11.20;61.91
10064;BME280;5071;52.360;13.134;2023-02-15T15:01:26;102024.75;;;11.01;62.34
10064;BME280;5071;52.360;13.134;2023-02-15T15:06:32;102031.00;;;11.09;63.11
10064;BME280;5071;52.360;13.134;2023-02-15T15:11:42;102026.66;;;11.22;62.41
10064;BME280;5071;52.360;13.134;2023-02-15T15:16:50;102022.28;;;11.28;61.92
10064;BME280;5071;52.360;13.134;2023-02-15T15:22:03;102041.59;;;11.03;62.44
10064;BME280;5071;52.360;13.134;2023-02-15T15:27:40;102036.09;;;10.78;63.77
10064;BME280;5071;52.360;13.134;2023-02-15T15:32:48;102045.63;;;10.50;65.18
10064;BME280;5071;52.360;13.134;2023-02-15T15:38:10;102040.81;;;10.15;67.98
10064;BME280;5071;52.360;13.134;2023-02-15T15:43:53;102033.41;;;9.85;67.34
10064;BME280;5071;52.360;13.134;2023-02-15T15:49:01;102033.13;;;9.60;69.99
10064;BME280;5071;52.360;13.134;2023-02-15T15:54:11;102035.31;;;9.25;70.11
10064;BME280;5071;52.360;13.134;2023-02-15T15:59:20;102027.69;;;8.87;70.58
10064;BME280;5071;52.360;13.134;2023-02-15T16:04:25;102015.44;;;8.40;72.17
10064;BME280;5071;52.360;13.134;2023-02-15T16:09:29;102023.34;;;7.90;75.30
10064;BME280;5071;52.360;13.134;2023-02-15T16:14:35;102017.63;;;7.68;76.42
10064;BME280;5071;52.360;13.134;2023-02-15T16:19:39;102016.69;;;7.24;77.81
10064;BME280;5071;52.360;13.134;2023-02-15T16:25:05;102005.13;;;6.79;79.73
10064;BME280;5071;52.360;13.134;2023-02-15T16:30:21;102016.53;;;6.41;82.45
10064;BME280;5071;52.360;13.134;2023-02-15T16:35:53;102025.19;;;6.02;84.35
10064;BME280;5071;52.360;13.134;2023-02-15T16:40:57;102023.47;;;5.74;85.97
10064;BME280;5071;52.360;13.134;2023-02-15T16:46:03;102022.78;;;5.48;87.87
10064;BME280;5071;52.360;13.134;2023-02-15T16:51:07;102024.41;;;5.16;89.29
10064;BME280;5071;52.360;13.134;2023-02-15T16:56:11;102018.41;;;4.91;89.66
10064;BME280;5071;52.360;13.134;2023-02-15T17:01:14;102018.47;;;4.65;90.90
10064;BME280;5071;52.360;13.134;2023-02-15T17:06:21;102010.75;;;4.44;91.06
10064;BME280;5071;52.360;13.134;2023-02-15T17:11:34;102000.44;;;4.23;92.04
10064;BME280;5071;52.360;13.134;2023-02-15T17:16:49;102003.47;;;4.10;93.08
10064;BME280;5071;52.360;13.134;2023-02-15T17:21:54;102002.09;;;3.96;93.78
10064;BME280;5071;52.360;13.134;2023-02-15T17:27:02;102006.47;;;3.71;93.94
10064;BME280;5071;52.360;13.134;2023-02-15T17:32:14;101995.22;;;3.49;94.76
10064;BME280;5071;52.360;13.134;2023-02-15T17:37:28;102010.03;;;3.49;95.70
10064;BME280;5071;52.360;13.134;2023-02-15T17:42:32;102010.50;;;3.37;95.97
10064;BME280;5071;52.360;13.134;2023-02-15T17:47:34;102005.63;;;3.24;95.98
10064;BME280;5071;52.360;13.134;2023-02-15T17:53:01;102011.25;;;3.10;96.81
10064;BME280;5071;52.360;13.134;2023-02-15T17:58:20;102003.59;;;2.94;97.24
10064;BME280;5071;52.360;13.134;2023-02-15T18:03:23;101997.88;;;2.82;97.29
10064;BME280;5071;52.360;13.134;2023-02-15T18:08:27;102007.69;;;2.65;97.55
10064;BME280;5071;52.360;13.134;2023-02-15T18:13:30;102003.78;;;2.55;98.20
10064;BME280;5071;52.360;13.134;2023-02-15T18:18:33;102006.00;;;2.44;98.46
10064;BME280;5071;52.360;13.134;2023-02-15T18:23:35;101998.69;;;2.37;99.00
10064;BME280;5071;52.360;13.134;2023-02-15T18:28:39;101990.53;;;2.29;99.39
10064;BME280;5071;52.360;13.134;2023-02-15T18:34:24;101986.94;;;2.27;99.13
10064;BME280;5071;52.360;13.134;2023-02-15T18:39:35;101991.03;;;2.21;99.26
10064;BME280;5071;52.360;13.134;2023-02-15T18:44:39;101993.91;;;2.27;99.12
10064;BME280;5071;52.360;13.134;2023-02-15T18:49:51;101994.09;;;2.10;99.02
10064;BME280;5071;52.360;13.134;2023-02-15T18:55:02;102004.13;;;2.00;98.52
10064;BME280;5071;52.360;13.134;2023-02-15T19:00:12;101998.47;;;1.90;98.17
10064;BME280;5071;52.360;13.134;2023-02-15T19:05:15;101984.84;;;1.78;98.41
10064;BME280;5071;52.360;13.134;2023-02-15T19:10:19;101997.66;;;1.72;99.04
10064;BME280;5071;52.360;13.134;2023-02-15T19:15:24;101985.91;;;1.62;99.03
10064;BME280;5071;52.360;13.134;2023-02-15T19:20:36;101973.38;;;1.55;98.85
10064;BME280;5071;52.360;13.134;2023-02-15T19:25:40;101968.78;;;1.49;98.67
10064;BME280;5071;52.360;13.134;2023-02-15T19:30:44;101963.03;;;1.39;98.42
10064;BME280;5071;52.360;13.134;2023-02-15T19:35:52;101948.91;;;1.33;99.18
10064;BME280;5071;52.360;13.134;2023-02-15T19:41:00;101942.06;;;1.17;98.82
10064;BME280;5071;52.360;13.134;2023-02-15T19:46:10;101946.41;;;1.17;98.94
10064;BME280;5071;52.360;13.134;2023-02-15T19:51:17;101936.13;;;1.02;99.25
10064;BME280;5071;52.360;13.134;2023-02-15T19:56:21;101934.22;;;0.98;99.29
10064;BME280;5071;52.360;13.134;2023-02-15T20:01:26;101923.59;;;0.95;100.00
10064;BME280;5071;52.360;13.134;2023-02-15T20:06:29;101908.72;;;0.74;99.73
10064;BME280;5071;52.360;13.134;2023-02-15T20:11:35;101920.56;;;0.86;100.00
10064;BME280;5071;52.360;13.134;2023-02-15T20:16:40;101913.69;;;0.68;100.00
10064;BME280;5071;52.360;13.134;2023-02-15T20:21:45;101909.94;;;0.63;100.00
10064;BME280;5071;52.360;13.134;2023-02-15T20:26:48;101904.75;;;0.45;100.00
10064;BME280;5071;52.360;13.134;2023-02-15T20:31:52;101898.34;;;0.38;100.00
10064;BME280;5071;52.360;13.134;2023-02-15T20:36:56;101900.66;;;0.32;100.00
10064;BME280;5071;52.360;13.134;2023-02-15T20:41:59;101899.25;;;0.21;100.00
10064;BME280;5071;52.360;13.134;2023-02-15T20:47:03;101914.75;;;0.18;100.00
10064;BME280;5071;52.360;13.134;2023-02-15T20:52:16;101911.41;;;0.03;100.00
10064;BME280;5071;52.360;13.134;2023-02-15T20:57:19;101917.06;;;-0.06;100.00
10064;BME280;5071;52.360;13.134;2023-02-15T21:02:23;101916.50;;;-0.17;100.00
10064;BME280;5071;52.360;13.134;2023-02-15T21:07:26;101909.03;;;-0.27;100.00
10064;BME280;5071;52.360;13.134;2023-02-15T21:12:29;101906.22;;;-0.32;100.00
10064;BME280;5071;52.360;13.134;2023-02-15T21:17:33;101912.31;;;-0.31;100.00
10064;BME280;5071;52.360;13.134;2023-02-15T21:22:35;101907.69;;;-0.37;100.00
10064;BME280;5071;52.360;13.134;2023-02-15T21:27:38;101897.47;;;-0.50;100.00
10064;BME280;5071;52.360;13.134;2023-02-15T21:32:42;101900.94;;;-0.50;100.00
10064;BME280;5071;52.360;13.134;2023-02-15T21:37:45;101905.50;;;-0.62;100.00
10064;BME280;5071;52.360;13.134;2023-02-15T21:42:49;101921.16;;;-0.62;100.00
10064;BME280;5071;52.360;13.134;2023-02-15T21:47:52;101915.00;;;-0.81;100.00
10064;BME280;5071;52.360;13.134;2023-02-15T21:52:54;101914.50;;;-0.73;100.00
10064;BME280;5071;52.360;13.134;2023-02-15T21:57:57;101919.88;;;-0.87;100.00
10064;BME280;5071;52.360;13.134;2023-02-15T22:03:01;101906.03;;;-1.02;100.00
10064;BME280;5071;52.360;13.134;2023-02-15T22:08:09;101902.78;;;-0.98;100.00
10064;BME280;5071;52.360;13.134;2023-02-15T22:13:13;101903.13;;;-1.08;100.00
10064;BME280;5071;52.360;13.134;2023-02-15T22:18:20;101898.69;;;-1.09;100.00
10064;BME280;5071;52.360;13.134;2023-02-15T22:23:22;101904.38;;;-1.17;100.00
10064;BME280;5071;52.360;13.134;2023-02-15T22:28:29;101908.00;;;-1.14;100.00
10064;BME280;5071;52.360;13.134;2023-02-15T22:33:33;101894.13;;;-1.30;100.00
10064;BME280;5071;52.360;13.134;2023-02-15T22:38:36;101891.19;;;-1.36;100.00
10064;BME280;5071;52.360;13.134;2023-02-15T22:43:40;101887.06;;;-1.32;100.00
10064;BME280;5071;52.360;13.134;2023-02-15T22:48:45;101877.19;;;-1.38;100.00
10064;BME280;5071;52.360;13.134;2023-02-15T22:53:47;101887.69;;;-1.37;100.00
10064;BME280;5071;52.360;13.134;2023-02-15T22:58:49;101887.59;;;-1.38;100.00
10064;BME280;5071;52.360;13.134;2023-02-15T23:03:53;101889.94;;;-1.43;100.00
10064;BME280;5071;52.360;13.134;2023-02-15T23:08:55;101893.16;;;-1.32;100.00
10064;BME280;5071;52.360;13.134;2023-02-15T23:13:57;101879.81;;;-1.38;100.00
10064;BME280;5071;52.360;13.134;2023-02-15T23:19:00;101879.84;;;-1.53;100.00
10064;BME280;5071;52.360;13.134;2023-02-15T23:24:14;101888.03;;;-1.62;100.00
10064;BME280;5071;52.360;13.134;2023-02-15T23:29:20;101893.94;;;-1.49;100.00
10064;BME280;5071;52.360;13.134;2023-02-15T23:34:25;101886.25;;;-1.63;100.00
10064;BME280;5071;52.360;13.134;2023-02-15T23:39:28;101877.28;;;-1.68;100.00
10064;BME280;5071;52.360;13.134;2023-02-15T23:44:30;101872.28;;;-1.65;100.00
10064;BME280;5071;52.360;13.134;2023-02-15T23:49:34;101886.41;;;-1.60;100.00
10064;BME280;5071;52.360;13.134;2023-02-15T23:54:36;101895.34;;;-1.71;100.00
10064;BME280;5071;52.360;13.134;2023-02-15T23:59:41;101905.56;;;-1.59;100.00
